createdAt,value
2022-08-19T00:09:48.223Z,5.32
2022-08-19T00:14:41.910Z,6.35
2022-08-19T00:19:36.304Z,3.83
2022-08-19T00:24:29.689Z,3.67
2022-08-19T00:29:26.748Z,4.20
2022-08-19T00:34:20.281Z,4.00
2022-08-19T00:39:16.347Z,3.92
2022-08-19T00:44:16.980Z,5.75
2022-08-19T00:49:18.316Z,5.63
2022-08-19T00:54:12.164Z,4.35
2022-08-19T00:59:09.909Z,5.18
2022-08-19T01:04:03.609Z,5.00
2022-08-19T01:08:58.446Z,4.60
2022-08-19T01:13:55.167Z,5.25
2022-08-19T01:18:50.174Z,4.32
2022-08-19T01:23:45.308Z,6.68
2022-08-19T01:28:42.295Z,5.03
2022-08-19T01:33:36.194Z,5.70
2022-08-19T01:38:32.586Z,5.35
2022-08-19T01:43:27.630Z,5.57
2022-08-19T01:48:20.980Z,5.97
2022-08-19T01:53:14.575Z,6.03
2022-08-19T01:58:13.102Z,7.45
2022-08-19T02:03:10.345Z,7.28
2022-08-19T02:08:03.853Z,9.15
2022-08-19T02:12:57.230Z,7.78
2022-08-19T02:17:50.759Z,7.80
2022-08-19T02:22:46.086Z,9.13
2022-08-19T02:27:39.740Z,8.93
2022-08-19T02:32:33.359Z,9.27
2022-08-19T02:37:45.515Z,9.32
2022-08-19T02:42:41.737Z,8.75
2022-08-19T02:47:35.406Z,10.13
2022-08-19T02:52:29.186Z,10.35
2022-08-19T02:57:23.110Z,9.18
2022-08-19T03:02:21.155Z,10.43
2022-08-19T03:07:17.425Z,10.35
2022-08-19T03:12:12.480Z,9.07
2022-08-19T03:17:06.808Z,12.60
2022-08-19T03:22:01.523Z,11.90
2022-08-19T03:26:58.745Z,11.10
2022-08-19T03:31:53.068Z,11.00
2022-08-19T03:36:48.184Z,11.50
2022-08-19T03:41:48.257Z,12.30
2022-08-19T03:46:42.396Z,10.95
2022-08-19T03:51:41.041Z,11.63
2022-08-19T03:56:36.979Z,13.02
2022-08-19T04:01:34.955Z,12.27
2022-08-19T04:06:33.505Z,14.60
2022-08-19T04:11:32.515Z,12.18
2022-08-19T04:16:39.193Z,13.68
2022-08-19T04:21:32.827Z,11.40
2022-08-19T04:26:33.023Z,11.85
2022-08-19T04:31:29.838Z,9.50
2022-08-19T04:36:28.122Z,10.70
2022-08-19T04:41:38.746Z,12.13
2022-08-19T04:46:39.254Z,9.55
2022-08-19T04:51:37.817Z,10.00
2022-08-19T04:56:31.782Z,11.43
2022-08-19T05:01:29.338Z,11.20
2022-08-19T05:06:25.828Z,10.32
2022-08-19T05:11:26.635Z,11.70
2022-08-19T05:16:24.108Z,11.40
2022-08-19T05:21:38.977Z,13.63
2022-08-19T05:26:33.659Z,14.00
2022-08-19T05:31:26.984Z,11.88
2022-08-19T05:36:20.938Z,15.25
2022-08-19T05:41:18.306Z,14.15
2022-08-19T05:46:27.986Z,17.17
2022-08-19T05:51:21.540Z,16.05
2022-08-19T05:56:18.741Z,15.10
2022-08-19T06:01:18.007Z,17.90
2022-08-19T06:06:14.604Z,15.70
2022-08-19T06:11:34.277Z,19.48
2022-08-19T06:16:31.139Z,17.52
2022-08-19T06:21:28.145Z,18.13
2022-08-19T06:26:23.229Z,18.15
2022-08-19T06:31:18.788Z,17.35
2022-08-19T06:36:25.263Z,16.63
2022-08-19T06:41:19.523Z,19.30
2022-08-19T06:46:16.056Z,18.45
2022-08-19T06:51:09.489Z,20.88
2022-08-19T06:56:04.936Z,19.23
2022-08-19T07:00:58.591Z,18.30
2022-08-19T07:05:51.984Z,17.65
2022-08-19T07:10:47.478Z,20.55
2022-08-19T07:15:42.378Z,18.85
2022-08-19T07:20:36.440Z,17.75
2022-08-19T07:25:32.364Z,19.85
2022-08-19T07:30:26.914Z,19.33
2022-08-19T07:35:21.799Z,17.52
2022-08-19T07:40:15.890Z,14.55
2022-08-19T07:45:11.057Z,19.40
2022-08-19T07:50:06.408Z,18.48
2022-08-19T07:55:04.762Z,19.02
2022-08-19T07:59:58.110Z,17.30
2022-08-19T08:05:08.838Z,16.88
2022-08-19T08:10:03.876Z,19.20
2022-08-19T08:15:02.614Z,19.17
2022-08-19T08:19:56.036Z,16.63
2022-08-19T08:24:49.359Z,18.17
2022-08-19T08:29:45.515Z,17.50
2022-08-19T08:34:39.137Z,19.15
2022-08-19T08:39:33.187Z,22.48
2022-08-19T08:44:42.176Z,24.65
2022-08-19T08:49:51.195Z,18.40
2022-08-19T08:54:49.116Z,21.88
2022-08-19T08:59:52.976Z,22.45
2022-08-19T09:04:49.371Z,21.58
2022-08-19T09:09:47.395Z,21.00
2022-08-19T09:14:52.755Z,25.33
2022-08-19T09:19:58.041Z,25.75
2022-08-19T09:24:53.234Z,25.10
2022-08-19T09:29:50.016Z,22.33
2022-08-19T09:34:50.813Z,22.50
2022-08-19T09:39:46.304Z,22.15
2022-08-19T09:44:40.218Z,23.38
2022-08-19T09:49:33.936Z,24.85
2022-08-19T09:54:27.855Z,21.60
2022-08-19T09:59:23.448Z,23.45
2022-08-19T10:04:20.286Z,22.13
2022-08-19T10:09:26.117Z,19.60
2022-08-19T10:14:28.430Z,22.13
2022-08-19T10:19:25.587Z,16.88
2022-08-19T10:24:19.844Z,19.70
2022-08-19T10:29:13.516Z,21.67
2022-08-19T10:34:30.908Z,17.65
2022-08-19T10:39:28.634Z,21.30
2022-08-19T10:44:24.924Z,18.55
2022-08-19T10:49:25.359Z,17.55
2022-08-19T10:54:33.377Z,19.17
2022-08-19T10:59:35.771Z,18.42
2022-08-19T11:04:30.815Z,18.98
2022-08-19T11:09:33.900Z,19.23
2022-08-19T11:14:29.155Z,16.75
2022-08-19T11:19:25.662Z,16.50
2022-08-19T11:24:22.768Z,20.40
2022-08-19T11:29:20.228Z,24.52
2022-08-19T11:34:18.677Z,25.90
2022-08-19T11:39:14.542Z,24.73
2022-08-19T11:44:08.770Z,26.42
2022-08-19T11:49:06.594Z,22.40
2022-08-19T11:54:02.917Z,27.77
2022-08-19T11:58:58.276Z,26.88
2022-08-19T12:03:54.854Z,28.58
2022-08-19T12:08:49.620Z,28.92
2022-08-19T12:13:45.273Z,28.17
2022-08-19T12:18:38.644Z,26.00
2022-08-19T12:23:32.392Z,24.10
2022-08-19T12:28:28.080Z,26.33
2022-08-19T12:33:25.309Z,24.77
2022-08-19T12:38:19.181Z,25.90
2022-08-19T12:43:12.725Z,24.30
2022-08-19T12:48:33.420Z,26.17
2022-08-19T12:53:22.161Z,22.27
2022-08-19T12:58:15.493Z,23.20
2022-08-19T13:03:10.189Z,23.33
2022-08-19T13:08:03.981Z,25.00
2022-08-19T13:13:00.553Z,25.23
2022-08-19T13:17:56.808Z,26.40
2022-08-19T13:22:53.029Z,26.48
2022-08-19T13:27:46.828Z,26.13
2022-08-19T13:32:57.593Z,27.20
2022-08-19T13:37:52.806Z,24.98
2022-08-19T13:42:49.910Z,24.98
2022-08-19T13:47:45.073Z,28.17
2022-08-19T13:52:38.410Z,27.48
2022-08-19T13:57:33.197Z,24.30
2022-08-19T14:02:28.217Z,30.15
2022-08-19T14:07:24.444Z,23.40
2022-08-19T14:12:28.807Z,27.65
2022-08-19T14:17:24.063Z,30.17
2022-08-19T14:22:22.116Z,29.25
2022-08-19T14:27:15.978Z,28.17
2022-08-19T14:32:11.513Z,27.90
2022-08-19T14:37:14.410Z,31.27
2022-08-19T14:42:11.509Z,30.58
2022-08-19T14:47:06.221Z,30.38
2022-08-19T14:52:03.819Z,27.02
2022-08-19T14:56:58.789Z,31.63
2022-08-19T15:01:52.551Z,32.53
2022-08-19T15:06:45.982Z,36.38
2022-08-19T15:11:39.829Z,33.13
2022-08-19T15:16:35.254Z,34.55
2022-08-19T15:21:29.864Z,36.40
2022-08-19T15:26:23.510Z,34.33
2022-08-19T15:31:25.186Z,32.63
2022-08-19T15:36:23.927Z,35.25
2022-08-19T15:41:25.045Z,30.30
2022-08-19T15:46:21.959Z,31.20
2022-08-19T15:51:15.552Z,32.15
2022-08-19T15:56:11.103Z,35.63
2022-08-19T16:01:25.488Z,30.17
2022-08-19T16:06:29.572Z,36.90
2022-08-19T16:11:29.355Z,40.42
2022-08-19T16:16:27.756Z,33.60
2022-08-19T16:21:32.040Z,35.88
2022-08-19T16:26:31.040Z,39.03
2022-08-19T16:31:27.177Z,38.00
2022-08-19T16:36:20.545Z,37.75
2022-08-19T16:41:15.357Z,34.40
2022-08-19T16:46:11.089Z,34.15
2022-08-19T16:51:08.607Z,38.67
2022-08-19T16:56:02.003Z,37.90
2022-08-19T17:00:57.817Z,36.15
2022-08-19T17:05:58.634Z,39.00
2022-08-19T17:11:16.580Z,38.75
2022-08-19T17:16:06.824Z,38.55
2022-08-19T17:21:03.294Z,30.15
2022-08-19T17:25:57.515Z,32.30
2022-08-19T17:30:51.113Z,31.70
2022-08-19T17:35:53.268Z,31.92
2022-08-19T17:40:51.689Z,33.13
2022-08-19T17:45:46.025Z,30.48
2022-08-19T17:50:44.363Z,29.27
2022-08-19T17:55:40.501Z,28.00
2022-08-19T18:00:36.730Z,32.15
2022-08-19T18:05:33.943Z,29.75
2022-08-19T18:10:35.213Z,29.20
2022-08-19T18:15:29.943Z,29.13
2022-08-19T18:20:25.341Z,28.10
2022-08-19T18:25:24.271Z,28.17
2022-08-19T18:30:17.893Z,27.67
2022-08-19T18:35:15.451Z,32.53
2022-08-19T18:40:34.500Z,29.00
2022-08-19T18:45:45.464Z,24.42
2022-08-19T18:50:41.654Z,28.65
2022-08-19T18:55:37.419Z,27.42
2022-08-19T19:00:32.780Z,28.00
2022-08-19T19:05:27.572Z,30.10
2022-08-19T19:10:21.092Z,28.38
2022-08-19T19:15:17.462Z,25.33
2022-08-19T19:20:10.923Z,21.17
2022-08-19T19:25:08.391Z,26.27
2022-08-19T19:30:01.809Z,25.60
2022-08-19T19:35:15.249Z,25.33
2022-08-19T19:40:17.042Z,22.85
2022-08-19T19:45:11.207Z,21.95
2022-08-19T19:50:18.406Z,22.45
2022-08-19T19:55:29.194Z,21.73
2022-08-19T20:00:26.281Z,21.92
2022-08-19T20:05:31.962Z,21.88
2022-08-19T20:10:30.611Z,21.63
2022-08-19T20:15:24.575Z,22.88
2022-08-19T20:20:22.403Z,19.05
2022-08-19T20:25:24.520Z,23.10
2022-08-19T20:30:39.054Z,23.83
2022-08-19T20:35:39.678Z,19.50
2022-08-19T20:40:38.490Z,21.38
2022-08-19T20:45:34.109Z,21.67
2022-08-19T20:50:30.441Z,21.50
2022-08-19T20:55:25.908Z,19.23
2022-08-19T21:00:19.564Z,17.50
2022-08-19T21:05:13.908Z,18.63
2022-08-19T21:10:09.226Z,18.23
2022-08-19T21:15:04.943Z,16.88
2022-08-19T21:19:58.318Z,19.40
2022-08-19T21:24:51.688Z,19.08
2022-08-19T21:29:45.282Z,16.80
2022-08-19T21:34:41.409Z,15.25
2022-08-19T21:39:37.311Z,16.55
2022-08-19T21:44:30.746Z,15.57
2022-08-19T21:49:24.270Z,15.82
2022-08-19T21:54:19.040Z,16.42
2022-08-19T21:59:12.411Z,17.70
2022-08-19T22:04:06.100Z,15.35
2022-08-19T22:08:59.568Z,13.48
2022-08-19T22:13:56.576Z,13.95
2022-08-19T22:18:50.687Z,14.30
2022-08-19T22:23:44.648Z,17.42
2022-08-19T22:28:38.603Z,16.30
2022-08-19T22:33:34.654Z,15.20
2022-08-19T22:38:29.840Z,13.82
2022-08-19T22:43:26.557Z,14.45
2022-08-19T22:48:23.350Z,14.80
2022-08-19T22:53:18.079Z,12.43
2022-08-19T22:58:11.479Z,15.05
2022-08-19T23:03:04.990Z,14.35
2022-08-19T23:07:59.381Z,15.93
2022-08-19T23:12:54.240Z,15.43
2022-08-19T23:17:47.696Z,15.55
2022-08-19T23:22:42.121Z,14.65
2022-08-19T23:28:07.335Z,13.82
2022-08-19T23:33:14.573Z,17.17
2022-08-19T23:38:09.432Z,13.38
2022-08-19T23:43:03.563Z,15.40
2022-08-19T23:48:03.491Z,17.35
2022-08-19T23:53:02.660Z,16.08
2022-08-19T23:57:56.751Z,13.45
